createdAt,value
2018-08-19T08:12:22.106Z,6.30
2018-08-19T08:21:52.017Z,5.40
2018-08-19T08:22:51.071Z,6.20
2018-08-19T08:23:50.802Z,6.50
2018-08-19T08:24:50.750Z,6.30
2018-08-19T08:28:27.686Z,5.40
2018-08-19T08:29:27.811Z,6.50
2018-08-19T08:30:27.518Z,6.80
2018-08-19T08:31:27.497Z,6.70
2018-08-19T08:32:28.324Z,7.10
2018-08-19T08:33:27.451Z,6.70
2018-08-19T08:34:27.520Z,6.60
2018-08-19T08:35:27.383Z,7.10
2018-08-19T08:36:27.491Z,6.60
2018-08-19T08:37:27.637Z,6.30
2018-08-19T08:38:27.436Z,7.00
2018-08-19T08:39:27.397Z,7.00
2018-08-19T08:42:03.646Z,5.60
2018-08-19T08:43:04.372Z,6.50
2018-08-19T08:49:06.792Z,5.60
2018-08-19T08:50:06.499Z,5.70
2018-08-19T08:51:06.445Z,6.30
2018-08-19T08:52:06.359Z,6.10
2018-08-19T08:53:08.196Z,6.80
2018-08-19T08:57:03.274Z,5.80
2018-08-19T08:58:02.657Z,6.00
2018-08-19T09:13:48.326Z,5.00
2018-08-19T09:14:48.388Z,5.90
2018-08-19T09:15:48.595Z,6.20
2018-08-19T09:16:47.941Z,6.00
2018-08-19T09:17:48.871Z,5.30
2018-08-19T09:18:47.678Z,5.50
2018-08-19T09:19:48.589Z,5.10
2018-08-19T09:20:48.690Z,5.10
2018-08-19T09:36:44.639Z,5.40
2018-08-19T09:37:44.392Z,5.20
2018-08-19T09:38:44.481Z,5.30
2018-08-19T09:39:44.311Z,5.20
2018-08-19T09:40:44.221Z,5.20
2018-08-19T09:41:44.178Z,5.70
2018-08-19T09:42:44.787Z,5.40
2018-08-19T09:43:44.152Z,5.70
2018-08-19T09:44:44.148Z,5.30
2018-08-19T09:45:44.340Z,5.80
2018-08-19T09:46:44.280Z,5.20
2018-08-19T09:47:44.564Z,5.70
2018-08-19T09:48:44.979Z,6.00
2018-08-19T09:49:44.124Z,5.40
2018-08-19T09:50:44.090Z,5.80
2018-08-19T09:51:44.074Z,5.10
2018-08-19T09:52:44.157Z,5.50
2018-08-19T09:53:44.050Z,5.10
2018-08-19T09:54:44.064Z,5.30
2018-08-19T09:55:44.074Z,5.60
2018-08-19T09:56:44.023Z,5.80
2018-08-19T09:57:44.095Z,5.20
2018-08-19T09:58:44.029Z,5.60
2018-08-19T09:59:43.995Z,5.80
2018-08-19T10:00:44.055Z,6.30
2018-08-19T10:01:44.086Z,5.40
2018-08-19T10:02:44.027Z,5.90
2018-08-19T10:03:44.009Z,5.60
2018-08-19T10:04:44.499Z,5.70
2018-08-19T10:05:43.982Z,5.70
2018-08-19T10:06:43.982Z,5.40
2018-08-19T10:07:48.583Z,5.70
2018-08-19T10:08:44.016Z,5.50
2018-08-19T10:09:43.976Z,5.30
2018-08-19T10:10:44.475Z,5.80
2018-08-19T10:11:43.899Z,6.10
2018-08-19T10:12:43.871Z,5.60
2018-08-19T10:13:43.993Z,6.10
2018-08-19T10:14:44.541Z,5.90
2018-08-19T10:21:30.213Z,5.70
2018-08-19T10:22:30.132Z,5.80
2018-08-19T10:23:30.272Z,5.70
2018-08-19T10:24:29.988Z,6.00
2018-08-19T10:25:30.210Z,5.50
2018-08-19T10:26:29.943Z,5.80
2018-08-19T10:27:29.922Z,5.60
2018-08-19T10:28:30.039Z,5.90
2018-08-19T10:29:30.358Z,5.60
2018-08-19T10:30:30.034Z,6.10
2018-08-19T10:31:30.067Z,5.70
2018-08-19T10:32:37.922Z,5.60
2018-08-19T10:33:29.971Z,5.80
2018-08-19T10:34:29.870Z,5.80
2018-08-19T10:35:29.899Z,5.90
2018-08-19T10:36:29.905Z,5.70
2018-08-19T10:39:37.860Z,7.70
2018-08-19T10:40:37.017Z,5.60
2018-08-19T10:41:37.186Z,5.20
2018-08-19T10:42:47.546Z,5.50
2018-08-19T10:43:36.670Z,5.40
2018-08-19T10:44:36.760Z,5.50
2018-08-19T10:45:36.650Z,5.60
2018-08-19T10:46:36.670Z,5.70
2018-08-19T10:47:36.733Z,5.50
2018-08-19T10:48:36.614Z,6.10
2018-08-19T10:49:36.768Z,5.50
2018-08-19T10:50:36.598Z,5.30
2018-08-19T10:51:36.831Z,5.70
2018-08-19T10:52:36.575Z,5.50
2018-08-19T10:53:36.595Z,5.40
2018-08-19T10:54:36.569Z,5.50
2018-08-19T10:55:36.584Z,5.80
2018-08-19T10:56:36.540Z,5.70
2018-08-19T10:57:36.524Z,5.80
2018-08-19T10:58:36.519Z,5.70
2018-08-19T10:59:36.537Z,6.10
2018-08-19T11:00:36.508Z,6.10
2018-08-19T11:01:36.660Z,6.10
2018-08-19T11:02:36.487Z,5.70
2018-08-19T11:03:36.481Z,6.50
2018-08-19T11:04:36.479Z,5.60
2018-08-19T11:05:36.459Z,5.80
2018-08-19T11:06:36.471Z,5.90
2018-08-19T11:07:36.437Z,5.90
2018-08-19T11:08:36.434Z,5.80
2018-08-19T11:09:36.449Z,6.20
2018-08-19T11:10:36.414Z,5.90
2018-08-19T11:11:36.398Z,6.00
2018-08-19T11:12:36.425Z,6.00
2018-08-19T11:13:36.389Z,6.30
2018-08-19T11:14:36.374Z,5.90
2018-08-19T11:15:36.366Z,5.90
2018-08-19T11:16:36.360Z,6.20
2018-08-19T11:17:36.371Z,6.40
2018-08-19T11:18:36.340Z,5.90
2018-08-19T11:19:36.336Z,6.80
2018-08-19T11:20:36.394Z,5.90
2018-08-19T11:21:36.358Z,6.40
2018-08-19T11:22:36.348Z,6.10
2018-08-19T11:23:36.287Z,6.40
2018-08-19T11:24:36.320Z,6.30
2018-08-19T11:25:36.298Z,6.10
2018-08-19T11:26:36.282Z,6.30
2018-08-19T11:27:36.320Z,6.40
2018-08-19T11:28:36.324Z,5.80
2018-08-19T11:29:36.235Z,6.40
2018-08-19T11:30:36.221Z,6.80
2018-08-19T11:31:36.334Z,6.80
2018-08-19T11:32:36.214Z,5.90
2018-08-19T11:33:36.204Z,6.90
2018-08-19T11:34:36.195Z,6.70
2018-08-19T11:35:36.177Z,6.30
2018-08-19T11:36:36.164Z,6.80
2018-08-19T11:37:36.188Z,6.70
2018-08-19T11:38:36.227Z,6.00
2018-08-19T11:39:36.153Z,6.50
2018-08-19T11:40:36.151Z,6.80
2018-08-19T11:41:36.130Z,6.40
2018-08-19T11:42:36.149Z,6.90
2018-08-19T11:43:36.121Z,6.30
2018-08-19T11:44:36.452Z,6.80
2018-08-19T11:45:36.082Z,7.10
2018-08-19T11:46:36.148Z,6.90
2018-08-19T11:47:36.131Z,6.90
2018-08-19T11:48:36.383Z,6.80
2018-08-19T11:49:36.162Z,7.00
2018-08-19T11:50:36.210Z,7.20
2018-08-19T11:51:36.112Z,7.20
2018-08-19T11:52:36.050Z,6.80
2018-08-19T11:53:36.061Z,6.40
2018-08-19T11:54:36.009Z,6.80
2018-08-19T11:55:36.549Z,7.30
2018-08-19T11:56:35.996Z,6.70
2018-08-19T11:57:36.014Z,7.20
2018-08-19T11:58:36.003Z,7.00
2018-08-19T11:59:36.004Z,7.20
2018-08-19T12:00:36.014Z,7.00
2018-08-19T12:01:36.047Z,6.30
2018-08-19T12:02:35.991Z,7.00
2018-08-19T12:03:36.396Z,6.30
2018-08-19T12:04:35.941Z,7.00
2018-08-19T12:05:35.922Z,6.60
2018-08-19T12:06:35.934Z,6.10
2018-08-19T12:07:35.898Z,6.10
2018-08-19T12:08:35.894Z,6.40
2018-08-19T12:09:36.049Z,6.60
2018-08-19T12:10:35.891Z,6.70
2018-08-19T12:11:35.959Z,6.60
2018-08-19T12:12:35.858Z,6.90
2018-08-19T12:13:36.372Z,6.60
2018-08-19T12:14:35.879Z,6.70
2018-08-19T12:15:35.859Z,6.80
2018-08-19T12:16:35.868Z,6.90
2018-08-19T12:17:35.894Z,6.70
2018-08-19T12:18:35.937Z,7.00
2018-08-19T12:19:35.894Z,6.80
2018-08-19T12:20:35.797Z,7.10
2018-08-19T12:21:35.780Z,6.70
2018-08-19T12:22:35.804Z,6.80
2018-08-19T12:23:35.938Z,6.50
2018-08-19T12:24:35.744Z,6.50
2018-08-19T12:25:35.746Z,6.60
2018-08-19T12:26:35.952Z,6.60
2018-08-19T12:27:35.791Z,6.80
2018-08-19T12:28:35.715Z,6.30
2018-08-19T12:29:35.696Z,6.40
2018-08-19T12:30:35.700Z,6.70
2018-08-19T12:31:35.722Z,6.70
2018-08-19T12:32:35.660Z,6.60
2018-08-19T12:33:35.648Z,6.10
2018-08-19T12:34:35.654Z,6.00
2018-08-19T12:35:35.633Z,6.40
2018-08-19T12:36:35.650Z,6.10
2018-08-19T12:37:35.699Z,6.50
2018-08-19T12:38:35.655Z,6.60
2018-08-19T12:39:35.608Z,6.10
2018-08-19T12:40:35.651Z,6.70
2018-08-19T12:41:35.590Z,6.40
2018-08-19T12:42:35.568Z,5.90
2018-08-19T12:43:35.650Z,6.50
2018-08-19T12:44:35.553Z,6.40
2018-08-19T12:45:35.539Z,6.40
2018-08-19T12:46:35.563Z,6.60
2018-08-19T12:47:35.519Z,6.20
2018-08-19T12:48:35.511Z,6.50
2018-08-19T12:49:35.778Z,6.30
2018-08-19T12:50:35.487Z,5.90
2018-08-19T12:51:35.491Z,6.10
2018-08-19T12:52:35.500Z,6.70
2018-08-19T12:53:35.461Z,6.40
2018-08-19T12:54:35.461Z,6.70
2018-08-19T12:55:35.545Z,6.70
2018-08-19T12:56:35.472Z,6.80
2018-08-19T12:57:35.437Z,6.70
2018-08-19T12:58:35.431Z,6.80
2018-08-19T12:59:35.420Z,6.40
2018-08-19T13:00:35.404Z,6.30
2018-08-19T13:01:35.433Z,6.50
2018-08-19T13:02:35.623Z,6.90
2018-08-19T13:03:35.381Z,6.60
2018-08-19T13:04:35.380Z,6.90
2018-08-19T13:05:35.353Z,6.50
2018-08-19T13:06:35.398Z,7.20
2018-08-19T13:07:35.451Z,6.90
2018-08-19T13:08:35.337Z,6.30
2018-08-19T13:09:35.322Z,6.60
2018-08-19T13:10:38.068Z,6.80
2018-08-19T13:11:35.298Z,6.70
2018-08-19T13:12:35.386Z,6.70
2018-08-19T13:13:35.279Z,6.60
2018-08-19T13:14:35.280Z,6.60
2018-08-19T13:15:35.532Z,6.60
2018-08-19T13:16:35.324Z,7.20
2018-08-19T13:17:35.274Z,7.60
2018-08-19T13:18:35.281Z,7.30
2018-08-19T13:19:35.312Z,7.20
2018-08-19T13:20:35.308Z,7.20
2018-08-19T13:21:35.224Z,7.10
2018-08-19T13:22:35.189Z,7.40
2018-08-19T13:23:35.206Z,7.60
2018-08-19T13:24:35.247Z,7.40
2018-08-19T13:25:35.176Z,7.20
2018-08-19T13:26:35.316Z,7.80
2018-08-19T13:27:35.176Z,7.40
2018-08-19T13:28:35.216Z,7.30
2018-08-19T13:29:35.128Z,7.00
2018-08-19T13:30:35.114Z,6.80
2018-08-19T13:31:35.260Z,7.10
2018-08-19T13:32:35.159Z,7.20
2018-08-19T13:33:35.119Z,6.80
2018-08-19T13:34:35.134Z,7.00
2018-08-19T13:35:35.073Z,7.10
2018-08-19T13:36:35.058Z,7.30
2018-08-19T13:37:35.114Z,7.20
2018-08-19T13:38:35.265Z,7.10
2018-08-19T13:39:35.606Z,7.50
2018-08-19T13:40:35.220Z,6.70
2018-08-19T13:41:35.178Z,7.40
2018-08-19T13:42:35.051Z,7.10
2018-08-19T13:43:35.077Z,7.20
2018-08-19T13:49:02.613Z,7.00
2018-08-19T13:50:02.264Z,7.10
2018-08-19T13:51:05.316Z,7.20
2018-08-19T13:52:04.977Z,7.70
2018-08-19T14:01:52.082Z,7.30
2018-08-19T14:02:52.237Z,7.20
2018-08-19T14:03:52.325Z,6.80
2018-08-19T14:09:53.912Z,6.40
2018-08-19T14:10:53.861Z,7.20
2018-08-19T14:16:41.518Z,5.80
2018-08-19T14:37:29.550Z,5.30
2018-08-19T14:38:28.899Z,6.10
2018-08-19T14:39:28.913Z,6.20
2018-08-19T14:40:29.315Z,6.50
2018-08-19T14:41:28.904Z,6.40
2018-08-19T14:42:28.751Z,6.40
2018-08-19T14:43:28.858Z,6.60
2018-08-19T14:44:28.719Z,6.00
2018-08-19T14:45:29.601Z,6.10
2018-08-19T14:46:28.796Z,6.50
2018-08-19T14:47:28.688Z,5.80
2018-08-19T14:48:28.690Z,6.20
2018-08-19T14:49:28.703Z,6.00
2018-08-19T14:50:28.650Z,5.80
2018-08-19T14:51:28.680Z,6.00
2018-08-19T14:52:28.632Z,6.00
2018-08-19T14:53:28.932Z,5.90
2018-08-19T14:54:28.599Z,6.10
2018-08-19T14:55:28.677Z,6.20
2018-08-19T14:56:28.917Z,6.00
2018-08-19T14:57:28.575Z,6.30
2018-08-19T14:58:29.454Z,6.10
2018-08-19T14:59:29.481Z,6.00
2018-08-19T15:00:35.996Z,5.90
2018-08-19T15:01:29.434Z,6.00
2018-08-19T15:09:18.924Z,6.50
2018-08-19T15:10:18.351Z,5.50
2018-08-19T15:11:18.482Z,5.90
2018-08-19T15:12:18.488Z,5.50
2018-08-19T15:18:42.161Z,5.60
2018-08-19T15:19:41.693Z,5.70
2018-08-19T15:20:41.549Z,5.90
2018-08-19T15:21:41.361Z,5.60
2018-08-19T15:22:41.321Z,5.70
2018-08-19T15:23:41.366Z,5.80
2018-08-19T15:24:41.300Z,6.00
2018-08-19T15:25:41.276Z,6.30
2018-08-19T15:26:41.314Z,5.60
2018-08-19T15:27:41.265Z,6.30
2018-08-19T15:28:41.270Z,5.90
2018-08-19T15:29:41.271Z,6.20
2018-08-19T15:30:41.235Z,6.00
2018-08-19T15:31:41.292Z,5.90
2018-08-19T15:32:42.184Z,5.70
2018-08-19T15:33:41.225Z,6.00
2018-08-19T15:34:41.190Z,5.90
2018-08-19T15:35:42.166Z,5.80
2018-08-19T15:36:41.331Z,6.30
2018-08-19T15:37:41.357Z,5.90
2018-08-19T15:38:41.153Z,5.70
2018-08-19T15:39:41.154Z,6.90
2018-08-19T15:46:04.995Z,6.40
2018-08-19T15:48:08.008Z,5.30
2018-08-19T15:49:07.870Z,5.80
2018-08-19T15:50:07.368Z,6.00
2018-08-19T15:51:08.371Z,6.00
2018-08-19T15:52:07.275Z,5.70
2018-08-19T15:53:07.411Z,6.10
2018-08-19T15:54:07.237Z,6.10
2018-08-19T15:55:07.271Z,6.30
2018-08-19T15:56:07.406Z,6.40
2018-08-19T15:57:07.184Z,5.80
2018-08-19T15:58:07.273Z,6.10
2018-08-19T15:59:07.174Z,5.80
2018-08-19T16:00:07.399Z,6.40
2018-08-19T16:01:07.237Z,6.30
2018-08-19T16:02:07.180Z,6.20
2018-08-19T16:03:07.155Z,6.50
2018-08-19T16:04:07.291Z,6.30
2018-08-19T16:05:07.317Z,6.60
2018-08-19T16:06:07.722Z,5.90
2018-08-19T16:07:07.075Z,6.50
2018-08-19T16:08:07.118Z,6.20
2018-08-19T16:09:07.050Z,6.50
2018-08-19T16:10:07.082Z,6.60
2018-08-19T16:11:07.117Z,6.30
2018-08-19T16:12:07.170Z,6.20
2018-08-19T16:13:11.711Z,6.50
2018-08-19T16:14:07.054Z,6.10
2018-08-19T16:15:08.822Z,6.20
2018-08-19T16:16:08.999Z,6.30
2018-08-19T16:17:08.127Z,6.40
2018-08-19T16:18:07.225Z,6.00
2018-08-19T16:19:07.253Z,6.00
2018-08-19T16:20:07.171Z,5.80
2018-08-19T16:21:08.031Z,6.70
2018-08-19T16:22:06.909Z,6.30
2018-08-19T16:23:06.920Z,6.00
2018-08-19T16:24:06.967Z,6.60
2018-08-19T16:25:06.872Z,6.40
2018-08-19T16:26:07.214Z,6.40
2018-08-19T16:27:06.867Z,6.50
2018-08-19T16:28:06.861Z,6.30
2018-08-19T16:29:06.831Z,6.50
2018-08-19T16:30:06.846Z,6.30
2018-08-19T16:31:06.817Z,15.90
2018-08-19T16:32:06.850Z,6.70
2018-08-19T16:33:06.949Z,6.90
2018-08-19T16:34:06.831Z,6.20
2018-08-19T16:35:07.032Z,6.70
2018-08-19T16:36:07.711Z,6.70
2018-08-19T16:37:06.811Z,6.20
2018-08-19T16:38:06.739Z,6.10
2018-08-19T16:39:06.735Z,6.70
2018-08-19T16:40:06.715Z,6.50
2018-08-19T16:41:06.709Z,6.80
2018-08-19T16:42:06.943Z,6.70
2018-08-19T16:43:06.872Z,6.90
2018-08-19T16:44:07.007Z,7.10
2018-08-19T16:45:07.245Z,6.70
2018-08-19T16:46:07.425Z,7.30
2018-08-19T16:47:06.685Z,6.50
2018-08-19T16:48:11.900Z,6.60
2018-08-19T16:49:06.664Z,6.70
2018-08-19T16:50:06.704Z,7.10
2018-08-19T16:51:06.716Z,6.50
2018-08-19T16:54:37.163Z,6.20
2018-08-19T16:55:36.813Z,6.50
2018-08-19T16:56:36.674Z,6.80
2018-08-19T16:57:36.605Z,7.40
2018-08-19T16:58:36.610Z,6.50
2018-08-19T16:59:36.635Z,6.60
2018-08-19T17:00:36.590Z,6.70
2018-08-19T17:01:36.722Z,6.90
2018-08-19T17:02:36.685Z,7.20
2018-08-19T17:03:36.581Z,6.70
2018-08-19T17:04:36.553Z,6.50
2018-08-19T17:05:36.556Z,6.40
2018-08-19T17:06:36.546Z,6.80
2018-08-19T17:07:36.502Z,6.40
2018-08-19T17:08:36.800Z,7.10
2018-08-19T17:09:36.496Z,7.00
2018-08-19T17:10:36.524Z,6.90
2018-08-19T17:11:36.580Z,6.80
2018-08-19T17:12:37.599Z,7.00
2018-08-19T17:16:19.582Z,5.30
2018-08-19T17:17:19.093Z,6.80
2018-08-19T17:18:19.122Z,7.10
2018-08-19T17:20:31.365Z,6.70
2018-08-19T17:21:31.004Z,7.10
2018-08-19T17:22:30.938Z,7.10
2018-08-19T17:23:30.823Z,7.40
2018-08-19T17:24:30.796Z,7.40
2018-08-19T17:25:30.813Z,7.50
2018-08-19T17:26:30.946Z,7.20
2018-08-19T17:27:30.742Z,7.80
2018-08-19T17:28:30.747Z,8.10
2018-08-19T17:29:30.737Z,7.30
2018-08-19T17:30:30.713Z,7.60
2018-08-19T17:31:30.718Z,7.50
2018-08-19T17:32:30.803Z,7.80
2018-08-19T17:33:30.725Z,7.30
2018-08-19T17:34:30.666Z,7.50
2018-08-19T17:35:30.671Z,7.40
2018-08-19T17:36:30.671Z,7.40
2018-08-19T17:37:30.640Z,7.30
2018-08-19T17:38:30.634Z,7.20
2018-08-19T17:39:30.764Z,7.70
2018-08-19T17:40:30.664Z,7.30
2018-08-19T17:41:30.652Z,7.40
2018-08-19T17:42:31.073Z,7.60
2018-08-19T17:43:30.752Z,7.80
2018-08-19T17:44:30.566Z,7.60
2018-08-19T17:45:30.613Z,7.40
2018-08-19T17:46:30.551Z,7.40
2018-08-19T17:47:30.663Z,7.40
2018-08-19T17:48:30.532Z,7.50
2018-08-19T17:49:31.667Z,7.90
2018-08-19T17:50:30.770Z,7.60
2018-08-19T17:51:44.608Z,8.10
2018-08-19T17:58:16.114Z,7.00
2018-08-19T17:59:16.054Z,8.40
2018-08-19T18:00:16.012Z,8.10
2018-08-19T18:01:15.907Z,8.20
2018-08-19T18:02:15.886Z,8.00
2018-08-19T18:03:15.955Z,8.40
2018-08-19T18:04:15.950Z,8.00
2018-08-19T18:05:15.846Z,8.40
2018-08-19T18:06:15.869Z,8.70
2018-08-19T18:07:15.836Z,8.50
2018-08-19T18:08:15.816Z,8.70
2018-08-19T18:09:16.007Z,9.10
2018-08-19T18:10:16.594Z,8.90
2018-08-19T18:11:15.787Z,8.70
2018-08-19T18:13:19.994Z,8.50
2018-08-19T18:14:19.328Z,9.40
2018-08-19T18:15:18.970Z,9.80
2018-08-19T18:16:18.660Z,9.40
2018-08-19T18:17:18.816Z,9.50
2018-08-19T18:18:18.499Z,9.00
2018-08-19T18:19:18.596Z,9.10
2018-08-19T18:20:18.481Z,9.80
2018-08-19T18:21:18.482Z,9.50
2018-08-19T18:22:18.509Z,8.80
2018-08-19T18:23:18.521Z,9.20
2018-08-19T18:24:18.500Z,9.00
2018-08-19T18:25:18.493Z,9.00
2018-08-19T18:26:18.474Z,9.00
2018-08-19T18:27:18.405Z,9.20
2018-08-19T18:28:18.394Z,8.90
2018-08-19T18:29:18.422Z,9.20
2018-08-19T18:30:18.373Z,9.00
2018-08-19T18:31:18.427Z,9.90
2018-08-19T18:32:18.433Z,10.10
2018-08-19T18:33:18.352Z,9.60
2018-08-19T18:34:18.473Z,9.70
2018-08-19T18:35:18.354Z,9.50
2018-08-19T18:36:18.398Z,9.40
2018-08-19T18:37:18.297Z,9.40
2018-08-19T18:38:18.364Z,8.70
2018-08-19T18:39:18.358Z,9.30
2018-08-19T18:40:18.800Z,9.20
2018-08-19T18:41:18.308Z,9.20
2018-08-19T18:42:18.275Z,9.80
2018-08-19T18:43:18.470Z,9.80
2018-08-19T18:44:18.353Z,10.00
2018-08-19T18:45:18.206Z,9.50
2018-08-19T18:46:18.230Z,9.70
2018-08-19T18:47:18.186Z,9.40
2018-08-19T18:48:18.194Z,9.60
2018-08-19T18:49:18.175Z,9.40
2018-08-19T18:50:18.155Z,9.30
2018-08-19T18:51:18.152Z,10.20
2018-08-19T18:52:18.492Z,10.10
2018-08-19T18:53:18.165Z,10.00
2018-08-19T18:54:18.508Z,10.10
2018-08-19T18:55:18.130Z,10.00
2018-08-19T18:56:18.223Z,9.90
2018-08-19T18:57:18.097Z,9.40
2018-08-19T18:58:18.072Z,8.90
2018-08-19T18:59:18.063Z,9.80
2018-08-19T19:00:18.117Z,10.10
2018-08-19T19:01:18.045Z,10.80
2018-08-19T19:02:18.118Z,10.60
2018-08-19T19:11:16.618Z,12.30
2018-08-19T19:12:16.215Z,10.40
2018-08-19T19:13:16.098Z,9.30
2018-08-19T19:14:16.508Z,10.00
2018-08-19T19:15:16.062Z,9.50
2018-08-19T19:16:15.958Z,10.40
2018-08-19T19:17:15.900Z,9.80
2018-08-19T19:18:15.917Z,9.90
2018-08-19T19:19:15.939Z,10.30
2018-08-19T19:20:16.151Z,9.80
2018-08-19T19:21:17.017Z,10.10
2018-08-19T19:22:15.942Z,10.40
2018-08-19T19:23:16.012Z,10.40
2018-08-19T19:24:16.513Z,10.00
2018-08-19T19:25:15.907Z,9.90
2018-08-19T19:26:15.872Z,10.30
2018-08-19T19:27:15.792Z,10.40
2018-08-19T19:28:15.781Z,9.90
2018-08-19T19:29:15.768Z,10.50
2018-08-19T19:30:15.842Z,9.70
2018-08-19T19:31:15.783Z,10.10
2018-08-19T19:32:15.735Z,10.70
2018-08-19T19:33:15.792Z,10.60
2018-08-19T19:34:15.768Z,10.70
2018-08-19T19:35:15.795Z,10.20
2018-08-19T19:36:16.025Z,10.70
2018-08-19T19:37:15.696Z,9.90
2018-08-19T19:38:15.715Z,10.20
2018-08-19T19:39:16.417Z,10.20
2018-08-19T19:40:15.673Z,10.30
2018-08-19T19:41:15.677Z,10.60
2018-08-19T19:42:15.654Z,10.70
2018-08-19T19:43:15.620Z,11.10
2018-08-19T19:44:15.613Z,10.60
2018-08-19T19:45:15.751Z,10.80
2018-08-19T19:46:15.625Z,10.50
2018-08-19T19:47:15.638Z,10.80
2018-08-19T19:48:15.573Z,10.10
2018-08-19T19:49:15.547Z,10.50
2018-08-19T19:50:28.546Z,10.50
2018-08-19T19:51:15.663Z,10.50
2018-08-19T19:52:15.778Z,10.50
2018-08-19T19:53:15.579Z,10.10
2018-08-19T19:54:18.378Z,10.50
2018-08-19T19:55:15.603Z,10.90
2018-08-19T19:57:40.478Z,9.60
2018-08-19T19:58:40.598Z,10.60
2018-08-19T19:59:40.432Z,10.60
2018-08-19T20:00:40.350Z,11.00
2018-08-19T20:01:40.269Z,11.00
2018-08-19T20:02:40.307Z,11.00
2018-08-19T20:03:40.274Z,11.20
2018-08-19T20:04:42.235Z,10.40
2018-08-19T20:05:41.248Z,10.40
2018-08-19T20:09:40.759Z,9.30
2018-08-19T20:10:40.436Z,11.40
2018-08-19T20:11:40.891Z,11.10
2018-08-19T20:21:46.684Z,9.60
2018-08-19T20:22:46.677Z,10.90
2018-08-19T20:23:50.775Z,10.90
2018-08-19T20:24:46.158Z,11.20
2018-08-19T20:25:46.594Z,14.00
2018-08-19T20:26:54.051Z,13.50
2018-08-19T20:27:46.168Z,12.10
2018-08-19T20:34:26.573Z,11.20
2018-08-19T20:35:26.212Z,11.70
2018-08-19T20:36:26.106Z,11.50
2018-08-19T20:37:27.442Z,11.20
2018-08-19T20:38:35.679Z,10.90
2018-08-19T20:39:26.292Z,11.00
2018-08-19T20:40:26.336Z,11.00
2018-08-19T20:41:26.085Z,10.30
2018-08-19T20:42:26.072Z,10.40
2018-08-19T20:43:26.026Z,10.10
2018-08-19T20:44:25.962Z,10.90
2018-08-19T20:45:26.003Z,10.90
2018-08-19T20:46:26.052Z,10.60
2018-08-19T20:47:26.022Z,10.50
2018-08-19T20:48:25.942Z,10.60
2018-08-19T20:49:25.970Z,10.80
2018-08-19T20:50:25.996Z,10.40
2018-08-19T20:51:25.926Z,10.50
2018-08-19T20:52:26.004Z,10.90
2018-08-19T20:53:25.885Z,10.30
2018-08-19T20:54:25.845Z,10.10
2018-08-19T20:55:25.902Z,10.80
2018-08-19T20:56:25.918Z,10.00
2018-08-19T20:57:25.838Z,10.90
2018-08-19T20:58:25.849Z,10.50
2018-08-19T20:59:25.814Z,10.50
2018-08-19T21:00:25.847Z,10.60
2018-08-19T21:01:25.853Z,10.90
2018-08-19T21:02:25.768Z,10.70
2018-08-19T21:03:25.805Z,10.30
2018-08-19T21:04:25.796Z,11.60
2018-08-19T21:05:25.752Z,12.10
2018-08-19T21:06:25.770Z,13.90
2018-08-19T21:07:25.877Z,14.70
2018-08-19T21:08:25.826Z,14.80
2018-08-19T21:09:25.782Z,15.40
2018-08-19T21:10:25.843Z,14.00
2018-08-19T21:11:25.760Z,13.80
2018-08-19T21:12:25.905Z,13.70
2018-08-19T21:16:49.571Z,10.10
2018-08-19T21:17:49.576Z,11.30
2018-08-19T21:18:49.601Z,11.00
2018-08-19T21:19:49.437Z,11.20
2018-08-19T21:20:49.432Z,11.20
2018-08-19T21:21:49.571Z,11.00
2018-08-19T21:22:49.364Z,11.60
2018-08-19T21:23:49.308Z,11.20
2018-08-19T21:24:49.329Z,11.60
2018-08-19T21:25:49.315Z,11.70
2018-08-19T21:26:49.289Z,11.50
2018-08-19T21:27:49.234Z,11.70
2018-08-19T21:55:59.007Z,11.90
2018-08-19T21:56:58.084Z,12.60
2018-08-19T21:57:58.180Z,12.60
2018-08-19T21:58:58.146Z,13.10
2018-08-19T21:59:57.925Z,12.60
2018-08-19T22:00:58.818Z,12.20
2018-08-19T22:01:58.531Z,12.10
2018-08-19T22:02:57.960Z,12.30
2018-08-19T22:03:57.898Z,12.60
2018-08-19T22:04:57.923Z,13.10
2018-08-19T22:05:58.042Z,12.60
2018-08-19T22:06:57.999Z,12.70
2018-08-19T22:07:58.360Z,12.70
2018-08-19T22:08:59.485Z,12.40
2018-08-19T22:09:57.844Z,12.60
2018-08-19T22:10:57.891Z,13.20
2018-08-19T22:11:57.830Z,12.10
2018-08-19T22:12:57.844Z,12.60
2018-08-19T22:13:57.770Z,13.10
2018-08-19T22:14:57.781Z,12.80
2018-08-19T22:15:57.794Z,13.00
2018-08-19T22:17:04.504Z,12.80
2018-08-19T22:17:57.777Z,12.50
2018-08-19T22:18:57.776Z,12.80
2018-08-19T22:19:58.516Z,13.30
2018-08-19T22:20:59.505Z,12.70
2018-08-19T22:21:59.451Z,12.00
2018-08-19T22:34:43.626Z,10.60
2018-08-19T23:07:33.760Z,12.00
2018-08-19T23:08:34.098Z,12.90
2018-08-19T23:09:33.570Z,13.10
2018-08-19T23:10:33.363Z,13.00
2018-08-19T23:11:33.213Z,12.90
2018-08-19T23:12:33.197Z,13.00
2018-08-19T23:13:33.322Z,13.80
2018-08-19T23:14:36.117Z,12.80
2018-08-19T23:15:39.460Z,12.50
2018-08-19T23:16:33.095Z,12.60
2018-08-19T23:17:34.036Z,13.70
2018-08-19T23:18:33.090Z,12.00
2018-08-19T23:19:33.086Z,12.80
2018-08-19T23:20:33.048Z,12.60
2018-08-19T23:21:33.074Z,12.40
2018-08-19T23:22:33.183Z,12.20
2018-08-19T23:27:43.851Z,12.00
2018-08-19T23:36:15.033Z,11.50
2018-08-19T23:37:15.013Z,13.10
2018-08-19T23:38:14.669Z,13.00
2018-08-19T23:52:36.719Z,11.40
2018-08-19T23:53:35.560Z,13.40
2018-08-19T23:54:35.644Z,13.70
